EDT,Max TemperatureF,Mean TemperatureF,Min TemperatureF,Max Dew PointF,MeanDew PointF,Min DewpointF,Max Humidity, Mean Humidity, Min Humidity, Max Sea Level PressureIn, Mean Sea Level PressureIn, Min Sea Level PressureIn, Max VisibilityMiles, Mean VisibilityMiles, Min VisibilityMiles, Max Wind SpeedMPH, Mean Wind SpeedMPH, Max Gust SpeedMPH,PrecipitationIn, CloudCover, Events, WindDirDegrees
2013-5-1,76,60,44,38,30,25,60,38,16,30.45,30.39,30.32,10,10,10,15,5,21,0.00,1,,175
2013-5-2,81,64,46,42,39,35,80,51,21,30.46,30.38,30.26,10,10,10,17,3,23,0.00,2,,173
2013-5-3,72,62,51,41,33,26,51,36,20,30.48,30.40,30.31,10,10,10,14,5,18,0.00,2,,157
2013-5-4,77,61,44,44,39,27,82,53,23,30.36,30.27,30.16,10,10,10,16,4,22,0.00,0,Fog,140
2013-5-5,74,59,44,43,36,27,77,49,20,30.30,30.22,30.14,10,10,10,15,7,23,0.00,0,,174
2013-5-6,74,58,42,49,37,21,82,48,14,30.26,30.18,30.09,10,10,10,14,7,22,0.00,0,,173
2013-5-7,80,66,51,53,49,45,89,60,30,30.17,30.11,30.04,10,10,10,13,5,17,0.00,3,,177
2013-5-8,74,65,55,60,56,53,93,73,53,30.14,30.07,29.99,10,10,4,17,4,25,0.17,7,Rain,129
2013-5-9,71,61,51,55,53,49,96,72,47,29.99,29.93,29.86,10,10,10,14,4,18,0.00,5,Fog,184
2013-5-10,77,64,50,54,52,49,100,71,41,29.99,29.92,29.82,10,10,10,18,5,25,T,6,Fog,174
2013-5-11,69,62,54,63,57,48,97,85,72,29.83,29.72,29.66,10,9,1,17,8,23,0.70,8,Rain,195
2013-5-12,59,49,39,47,38,26,83,58,32,29.88,29.74,29.68,10,10,10,25,9,35,T,6,Rain,298
2013-5-13,50,43,35,32,28,25,70,56,42,30.10,30.00,29.89,10,10,10,20,10,25,0.00,7,,271
2013-5-14,58,47,35,33,30,27,89,61,32,30.13,30.08,30.02,10,10,10,15,4,21,0.00,3,,281
2013-5-15,65,49,32,50,40,30,89,67,44,30.05,29.84,29.60,10,10,6,25,8,35,0.08,4,Fog-Rain-Thunderstorm,177
2013-5-16,79,60,41,46,38,33,89,56,22,29.87,29.74,29.70,10,10,10,31,11,38,0.00,1,,284
2013-5-17,70,59,47,44,39,36,71,51,30,30.22,30.08,29.90,10,10,10,16,6,21,0.00,4,,347
2013-5-18,72,57,42,48,43,37,92,61,29,30.32,30.26,30.22,10,10,10,16,6,22,0.00,6,Fog,187
2013-5-19,60,55,49,55,52,47,96,86,75,30.31,30.25,30.16,10,9,3,15,8,23,0.09,8,Rain,164
2013-5-20,81,69,56,63,59,53,100,77,54,30.15,30.03,29.93,10,10,6,13,4,,0.00,7,,171
2013-5-21,88,73,58,67,63,59,100,74,48,29.94,29.86,29.78,10,10,3,22,7,29,1.31,5,Fog-Rain-Thunderstorm,138
2013-5-22,77,70,63,69,64,61,93,84,74,29.89,29.84,29.78,10,8,1,25,9,37,1.15,7,Rain-Thunderstorm,168
2013-5-23,75,71,66,67,64,60,93,81,69,29.82,29.77,29.72,10,10,7,18,10,24,0.18,7,Rain,176
2013-5-24,66,55,44,64,49,41,93,87,80,30.01,29.85,29.66,10,6,1,20,8,26,1.07,8,Rain,320
2013-5-25,47,46,44,43,41,38,92,84,76,29.97,29.95,29.93,10,6,2,25,14,32,0.75,8,Rain,320
2013-5-26,58,49,39,42,39,38,96,74,51,30.14,30.00,29.89,10,10,10,26,11,36,0.04,6,Rain,311
2013-5-27,71,55,39,39,36,32,85,57,28,30.21,30.16,30.12,10,10,10,22,9,29,0.00,1,,281
2013-5-28,71,56,40,54,44,37,86,60,33,30.23,30.17,30.12,10,10,10,17,6,23,0.01,7,Rain,171
2013-5-29,79,65,51,70,61,55,100,84,67,30.12,30.02,29.91,10,8,0,36,7,53,1.10,7,Fog-Rain-Thunderstorm,171
2013-5-30,87,73,59,69,64,57,100,73,45,30.11,30.07,30.04,10,8,0,16,4,21,0.00,3,Fog,269
2013-5-31,92,78,64,68,65,62,93,68,42,30.11,30.03,29.92,10,9,4,14,4,18,0.00,2,Fog,178